createdAt,value
2022-09-12T00:01:31.532Z,3.87
2022-09-12T00:04:02.428Z,4.60
2022-09-12T00:06:33.658Z,4.20
2022-09-12T00:09:05.176Z,5.07
2022-09-12T00:11:37.755Z,4.47
2022-09-12T00:14:07.876Z,4.80
2022-09-12T00:16:37.760Z,5.03
2022-09-12T00:19:07.742Z,5.00
2022-09-12T00:21:37.997Z,4.77
2022-09-12T00:24:06.974Z,4.47
2022-09-12T00:26:36.605Z,4.43
2022-09-12T00:29:05.224Z,4.73
2022-09-12T00:31:33.561Z,5.80
2022-09-12T00:34:02.233Z,4.90
2022-09-12T00:36:31.493Z,5.10
2022-09-12T00:39:00.122Z,5.23
2022-09-12T00:41:32.230Z,4.70
2022-09-12T00:44:05.753Z,4.70
2022-09-12T00:46:41.672Z,4.83
2022-09-12T00:49:16.516Z,5.00
2022-09-12T00:51:49.576Z,5.50
2022-09-12T00:54:23.036Z,5.20
2022-09-12T00:56:55.295Z,4.93
2022-09-12T00:59:28.942Z,4.90
2022-09-12T01:01:58.065Z,5.43
2022-09-12T01:04:28.893Z,5.40
2022-09-12T01:06:59.530Z,5.27
2022-09-12T01:09:27.937Z,5.30
2022-09-12T01:11:57.150Z,5.20
2022-09-12T01:14:26.907Z,4.60
2022-09-12T01:16:55.198Z,4.90
2022-09-12T01:20:05.807Z,4.77
2022-09-12T01:23:01.680Z,4.60
2022-09-12T01:25:39.634Z,4.40
2022-09-12T01:28:30.279Z,5.10
2022-09-12T01:31:05.170Z,4.73
2022-09-12T01:33:52.842Z,5.00
2022-09-12T01:36:39.275Z,4.97
2022-09-12T01:39:21.002Z,5.77
2022-09-12T01:41:59.356Z,4.47
2022-09-12T01:44:37.710Z,5.07
2022-09-12T01:47:13.621Z,5.00
2022-09-12T01:49:53.200Z,5.20
2022-09-12T01:52:26.666Z,4.60
2022-09-12T01:55:01.607Z,4.63
2022-09-12T01:57:36.488Z,4.93
2022-09-12T02:00:09.173Z,5.10
2022-09-12T02:02:42.329Z,4.80
2022-09-12T02:05:16.275Z,4.73
2022-09-12T02:07:49.677Z,4.43
2022-09-12T02:10:21.605Z,4.70
2022-09-12T02:12:54.696Z,4.53
2022-09-12T02:15:33.716Z,4.67
2022-09-12T02:18:06.543Z,5.33
2022-09-12T02:20:48.617Z,4.93
2022-09-12T02:23:22.406Z,4.93
2022-09-12T02:25:54.118Z,5.20
2022-09-12T02:28:27.833Z,5.07
2022-09-12T02:31:05.129Z,6.00
2022-09-12T02:33:44.451Z,5.60
2022-09-12T02:36:24.533Z,4.97
2022-09-12T02:38:52.909Z,4.77
2022-09-12T02:41:22.845Z,5.07
2022-09-12T02:43:53.070Z,5.03
2022-09-12T02:46:26.211Z,5.07
2022-09-12T02:48:56.732Z,5.40
2022-09-12T02:51:25.306Z,5.40
2022-09-12T02:53:54.409Z,4.93
2022-09-12T02:56:29.042Z,5.70
2022-09-12T02:59:02.946Z,5.80
2022-09-12T03:01:51.252Z,5.43
2022-09-12T03:04:55.408Z,5.13
2022-09-12T03:07:42.742Z,5.63
2022-09-12T03:10:21.417Z,5.03
2022-09-12T03:13:00.897Z,5.03
2022-09-12T03:15:44.461Z,5.03
2022-09-12T03:18:36.078Z,5.57
2022-09-12T03:21:13.868Z,5.90
2022-09-12T03:23:54.340Z,5.50
2022-09-12T03:26:31.935Z,5.37
2022-09-12T03:29:03.300Z,6.20
2022-09-12T03:31:31.741Z,5.47
2022-09-12T03:34:01.239Z,5.30
2022-09-12T03:36:32.002Z,6.37
2022-09-12T03:39:00.253Z,5.57
2022-09-12T03:41:28.583Z,5.90
2022-09-12T03:43:56.992Z,5.97
2022-09-12T03:46:25.318Z,5.93
2022-09-12T03:48:53.550Z,6.23
2022-09-12T03:51:22.256Z,6.27
2022-09-12T03:53:51.857Z,6.20
2022-09-12T03:56:20.342Z,6.27
2022-09-12T03:58:48.827Z,6.07
2022-09-12T04:01:20.846Z,5.73
2022-09-12T04:03:52.846Z,5.87
2022-09-12T04:06:23.543Z,6.87
2022-09-12T04:08:55.323Z,6.47
2022-09-12T04:11:24.525Z,6.23
2022-09-12T04:13:52.867Z,6.30
2022-09-12T04:16:21.456Z,6.03
2022-09-12T04:18:49.709Z,5.97
2022-09-12T04:21:21.805Z,6.80
2022-09-12T04:23:50.345Z,5.80
2022-09-12T04:26:21.491Z,5.50
2022-09-12T04:28:54.693Z,5.03
2022-09-12T04:31:23.565Z,7.13
2022-09-12T04:33:56.270Z,6.47
2022-09-12T04:36:25.112Z,5.20
2022-09-12T04:38:53.766Z,5.13
2022-09-12T04:41:26.481Z,5.20
2022-09-12T04:43:58.225Z,5.47
2022-09-12T04:46:27.674Z,5.57
2022-09-12T04:48:57.192Z,5.20
2022-09-12T04:51:28.289Z,5.73
2022-09-12T04:53:58.854Z,5.43
2022-09-12T04:56:30.405Z,5.57
2022-09-12T04:59:00.497Z,5.33
2022-09-12T05:01:30.896Z,5.57
2022-09-12T05:04:00.340Z,5.80
2022-09-12T05:06:31.593Z,4.37
2022-09-12T05:09:01.829Z,8.40
2022-09-12T05:12:00.062Z,6.70
2022-09-12T05:14:21.926Z,7.30
2022-09-12T05:16:50.226Z,5.27
2022-09-12T05:19:18.733Z,8.53
2022-09-12T05:21:47.059Z,8.57
2022-09-12T05:24:15.311Z,5.03
2022-09-12T05:26:44.884Z,6.47
2022-09-12T05:29:13.253Z,6.00
2022-09-12T05:31:41.875Z,5.60
2022-09-12T05:34:11.315Z,5.37
2022-09-12T05:36:39.620Z,4.33
2022-09-12T05:39:08.585Z,5.10
2022-09-12T05:41:36.946Z,4.70
2022-09-12T05:44:11.802Z,5.07
2022-09-12T05:46:42.238Z,4.90
2022-09-12T05:49:13.634Z,4.70
2022-09-12T05:51:44.100Z,4.43
2022-09-12T05:54:15.514Z,5.60
2022-09-12T05:56:45.324Z,6.27
2022-09-12T05:59:17.461Z,5.43
2022-09-12T06:01:46.411Z,6.10
2022-09-12T06:04:15.070Z,5.87
2022-09-12T06:06:45.989Z,6.47
2022-09-12T06:09:16.153Z,6.77
2022-09-12T06:11:46.150Z,6.63
2022-09-12T06:14:18.154Z,6.43
2022-09-12T06:16:47.285Z,6.23
2022-09-12T06:19:18.492Z,5.67
2022-09-12T06:21:48.347Z,4.83
2022-09-12T06:24:17.625Z,5.80
2022-09-12T06:26:47.463Z,5.17
2022-09-12T06:29:17.459Z,6.10
2022-09-12T06:31:47.021Z,5.83
2022-09-12T06:34:17.037Z,5.93
2022-09-12T06:36:47.777Z,6.17
2022-09-12T06:39:18.084Z,6.27
2022-09-12T06:41:46.939Z,6.40
2022-09-12T06:44:19.304Z,6.30
2022-09-12T06:46:48.193Z,7.57
2022-09-12T06:49:17.574Z,7.60
2022-09-12T06:51:46.024Z,7.90
2022-09-12T06:54:16.887Z,7.80
2022-09-12T06:56:45.988Z,7.57
2022-09-12T06:59:15.932Z,7.30
2022-09-12T07:01:44.276Z,7.83
2022-09-12T07:04:12.716Z,8.40
2022-09-12T07:06:44.543Z,8.37
2022-09-12T07:09:16.362Z,8.60
2022-09-12T07:11:45.355Z,8.30
2022-09-12T07:14:16.877Z,8.00
2022-09-12T07:16:45.480Z,8.63
2022-09-12T07:19:13.772Z,9.00
2022-09-12T07:21:42.155Z,9.80
2022-09-12T07:24:11.649Z,9.33
2022-09-12T07:26:42.140Z,10.30
2022-09-12T07:29:36.902Z,9.90
2022-09-12T07:32:06.695Z,9.03
2022-09-12T07:34:35.913Z,9.37
2022-09-12T07:37:04.187Z,10.40
2022-09-12T07:39:32.541Z,9.83
2022-09-12T07:42:01.460Z,9.83
2022-09-12T07:44:31.147Z,10.43
2022-09-12T07:46:59.415Z,10.00
2022-09-12T07:49:27.656Z,10.33
2022-09-12T07:51:55.973Z,9.83
2022-09-12T07:54:24.628Z,8.67
2022-09-12T07:56:52.835Z,10.83
2022-09-12T07:59:35.659Z,10.50
2022-09-12T08:02:17.484Z,10.90
2022-09-12T08:04:47.733Z,10.00
2022-09-12T08:07:18.357Z,10.43
2022-09-12T08:09:47.313Z,9.77
2022-09-12T08:12:16.561Z,10.57
2022-09-12T08:14:44.937Z,10.57
2022-09-12T08:17:14.584Z,10.73
2022-09-12T08:19:42.879Z,10.50
2022-09-12T08:22:11.239Z,10.93
2022-09-12T08:24:40.478Z,11.40
2022-09-12T08:27:09.212Z,10.30
2022-09-12T08:29:37.410Z,11.60
2022-09-12T08:32:05.763Z,10.77
2022-09-12T08:34:35.358Z,10.87
2022-09-12T08:37:04.121Z,10.07
2022-09-12T08:39:32.695Z,11.50
2022-09-12T08:42:04.271Z,11.40
2022-09-12T08:45:02.137Z,12.90
2022-09-12T08:47:33.998Z,14.47
2022-09-12T08:50:16.469Z,15.00
2022-09-12T08:52:53.999Z,15.07
2022-09-12T08:55:32.758Z,14.70
2022-09-12T08:58:02.617Z,14.57
2022-09-12T09:00:44.626Z,14.23
2022-09-12T09:03:49.447Z,14.83
2022-09-12T09:06:43.842Z,12.93
2022-09-12T09:09:20.032Z,13.90
2022-09-12T09:12:01.438Z,13.43
2022-09-12T09:14:54.383Z,12.40
2022-09-12T09:17:30.312Z,11.40
2022-09-12T09:20:05.585Z,11.60
2022-09-12T09:22:45.590Z,10.53
2022-09-12T09:25:23.071Z,10.13
2022-09-12T09:27:58.851Z,9.60
2022-09-12T09:30:28.588Z,8.73
2022-09-12T09:33:00.937Z,8.70
2022-09-12T09:35:42.601Z,7.87
2022-09-12T09:38:27.004Z,8.57
2022-09-12T09:41:20.977Z,7.47
2022-09-12T09:43:49.282Z,6.70
2022-09-12T09:46:17.668Z,8.97
2022-09-12T09:48:49.406Z,8.03
2022-09-12T09:51:28.018Z,7.10
2022-09-12T09:54:02.440Z,6.37
2022-09-12T09:56:37.034Z,4.97
2022-09-12T09:59:12.879Z,4.90
2022-09-12T10:01:47.880Z,5.07
2022-09-12T10:04:22.597Z,4.80
2022-09-12T10:06:54.364Z,5.10
2022-09-12T10:09:27.747Z,4.70
2022-09-12T10:11:57.715Z,5.43
2022-09-12T10:14:36.767Z,4.78
2022-09-12T10:17:33.199Z,4.18
2022-09-12T10:20:20.431Z,4.80
2022-09-12T10:22:50.294Z,4.70
2022-09-12T10:25:21.545Z,4.47
2022-09-12T10:27:56.290Z,4.25
2022-09-12T10:30:28.282Z,4.47
2022-09-12T10:33:07.522Z,4.22
2022-09-12T10:35:47.200Z,3.65
2022-09-12T10:38:23.435Z,4.05
2022-09-12T10:41:00.444Z,4.20
2022-09-12T10:43:33.116Z,4.50
2022-09-12T10:46:22.888Z,3.63
2022-09-12T10:48:53.611Z,4.33
2022-09-12T10:51:29.858Z,4.77
2022-09-12T10:54:00.643Z,4.67
2022-09-12T10:56:32.910Z,4.57
2022-09-12T10:59:22.506Z,5.37
2022-09-12T11:01:56.114Z,4.93
2022-09-12T11:04:41.922Z,4.72
2022-09-12T11:07:37.926Z,3.63
2022-09-12T11:10:21.945Z,4.15
2022-09-12T11:13:01.826Z,4.80
2022-09-12T11:15:46.140Z,4.50
2022-09-12T11:18:34.886Z,4.43
2022-09-12T11:21:27.522Z,4.00
2022-09-12T11:24:28.738Z,3.88
2022-09-12T11:27:12.105Z,4.47
2022-09-12T11:29:51.186Z,4.45
2022-09-12T11:32:53.458Z,4.28
2022-09-12T11:35:27.425Z,3.90
2022-09-12T11:38:27.031Z,4.13
2022-09-12T11:40:58.133Z,3.58
2022-09-12T11:43:37.408Z,4.75
2022-09-12T11:46:16.780Z,3.70
2022-09-12T11:48:54.804Z,3.20
2022-09-12T11:51:28.960Z,4.63
2022-09-12T11:54:17.209Z,4.15
2022-09-12T11:56:48.850Z,4.18
2022-09-12T11:59:32.416Z,3.83
2022-09-12T12:02:03.223Z,4.30
2022-09-12T12:04:41.201Z,4.35
2022-09-12T12:07:12.409Z,3.97
2022-09-12T12:09:50.393Z,4.15
2022-09-12T12:12:25.317Z,4.05
2022-09-12T12:14:55.868Z,3.67
2022-09-12T12:17:27.045Z,3.63
2022-09-12T12:20:05.793Z,3.45
2022-09-12T12:22:37.209Z,3.67
2022-09-12T12:25:28.856Z,3.47
2022-09-12T12:28:01.798Z,3.60
2022-09-12T12:31:03.244Z,3.10
2022-09-12T12:34:04.379Z,2.95
2022-09-12T12:36:43.874Z,3.50
2022-09-12T12:40:05.910Z,3.00
2022-09-12T12:43:31.927Z,3.00
2022-09-12T12:46:10.534Z,3.40
2022-09-12T12:49:12.610Z,2.97
2022-09-12T12:52:01.485Z,3.45
2022-09-12T12:54:58.982Z,3.50
2022-09-12T12:57:34.378Z,2.97
2022-09-12T13:00:08.426Z,3.80
2022-09-12T13:02:40.047Z,4.00
2022-09-12T13:05:21.422Z,3.92
2022-09-12T13:07:57.703Z,3.22
2022-09-12T13:10:29.498Z,3.70
2022-09-12T13:13:01.796Z,3.45
2022-09-12T13:15:57.339Z,3.50
2022-09-12T13:18:29.386Z,3.38
2022-09-12T13:21:09.569Z,3.72
2022-09-12T13:23:38.132Z,3.10
2022-09-12T13:26:14.057Z,3.15
2022-09-12T13:28:42.508Z,2.78
2022-09-12T13:31:21.475Z,3.20
2022-09-12T13:33:52.519Z,3.78
2022-09-12T13:37:07.042Z,3.30
2022-09-12T13:39:49.594Z,3.28
2022-09-12T13:42:42.713Z,2.88
2022-09-12T13:45:21.265Z,3.20
2022-09-12T13:47:58.395Z,3.53
2022-09-12T13:50:29.961Z,3.38
2022-09-12T13:53:03.311Z,2.85
2022-09-12T13:55:36.327Z,3.53
2022-09-12T13:58:06.683Z,3.40
2022-09-12T14:00:37.265Z,3.00
2022-09-12T14:03:47.538Z,3.30
2022-09-12T14:06:16.364Z,3.33
2022-09-12T14:08:48.187Z,3.07
2022-09-12T14:11:27.066Z,3.33
2022-09-12T14:13:56.313Z,2.97
2022-09-12T14:16:27.381Z,3.27
2022-09-12T14:18:56.183Z,3.40
2022-09-12T14:21:37.224Z,3.17
2022-09-12T14:24:10.851Z,3.50
2022-09-12T14:26:41.227Z,3.30
2022-09-12T14:29:13.570Z,2.97
2022-09-12T14:31:43.589Z,3.07
2022-09-12T14:34:15.577Z,3.00
2022-09-12T14:36:47.816Z,3.17
2022-09-12T14:39:30.874Z,3.27
2022-09-12T14:42:07.063Z,3.40
2022-09-12T14:44:36.882Z,2.90
2022-09-12T14:47:19.355Z,3.30
2022-09-12T14:49:47.713Z,3.23
2022-09-12T14:52:27.686Z,3.10
2022-09-12T14:55:03.009Z,2.77
2022-09-12T14:57:40.118Z,2.73
2022-09-12T15:00:23.210Z,2.57
2022-09-12T15:02:53.656Z,2.50
2022-09-12T15:05:26.789Z,2.60
2022-09-12T15:07:59.026Z,3.10
2022-09-12T15:10:33.043Z,3.13
2022-09-12T15:13:20.752Z,2.80
2022-09-12T15:15:53.013Z,2.90
2022-09-12T15:18:24.511Z,2.33
2022-09-12T15:20:55.885Z,2.90
2022-09-12T15:23:35.097Z,2.97
2022-09-12T15:26:05.837Z,4.43
2022-09-12T15:28:34.928Z,4.20
2022-09-12T15:31:08.912Z,3.13
2022-09-12T15:33:37.285Z,12.43
2022-09-12T15:36:14.573Z,6.33
2022-09-12T15:38:44.657Z,4.23
2022-09-12T15:41:18.600Z,3.23
2022-09-12T15:43:47.927Z,2.90
2022-09-12T15:46:19.279Z,3.53
2022-09-12T15:48:47.714Z,3.43
2022-09-12T15:51:18.322Z,2.87
2022-09-12T15:53:48.274Z,3.60
2022-09-12T15:56:20.125Z,3.23
2022-09-12T15:58:58.692Z,3.20
2022-09-12T16:01:29.335Z,2.80
2022-09-12T16:03:58.246Z,3.00
2022-09-12T16:06:27.204Z,3.07
2022-09-12T16:08:55.456Z,3.90
2022-09-12T16:11:27.708Z,3.73
2022-09-12T16:13:56.843Z,3.00
2022-09-12T16:16:25.192Z,2.70
2022-09-12T16:18:53.556Z,2.43
2022-09-12T16:21:21.846Z,2.50
2022-09-12T16:23:50.269Z,2.50
2022-09-12T16:26:19.009Z,2.80
2022-09-12T16:28:48.958Z,2.57
2022-09-12T16:31:17.477Z,3.03
2022-09-12T16:33:45.783Z,2.67
2022-09-12T16:36:16.932Z,2.90
2022-09-12T16:38:47.222Z,2.83
2022-09-12T16:41:17.377Z,2.70
2022-09-12T16:43:46.885Z,2.47
2022-09-12T16:46:20.882Z,2.83
2022-09-12T16:48:52.821Z,2.97
2022-09-12T16:51:23.643Z,3.00
2022-09-12T16:53:52.310Z,2.60
2022-09-12T16:56:22.148Z,2.80
2022-09-12T16:58:50.763Z,2.87
2022-09-12T17:01:22.936Z,2.70
2022-09-12T17:03:55.200Z,2.50
2022-09-12T17:06:23.524Z,2.33
2022-09-12T17:08:54.005Z,2.43
2022-09-12T17:11:24.874Z,2.60
2022-09-12T17:14:11.705Z,2.70
2022-09-12T17:16:48.031Z,2.80
2022-09-12T17:19:22.608Z,2.67
2022-09-12T17:21:50.936Z,2.17
2022-09-12T17:24:19.978Z,2.67
2022-09-12T17:26:48.373Z,3.00
2022-09-12T17:29:18.073Z,2.80
2022-09-12T17:31:48.135Z,2.80
2022-09-12T17:34:17.636Z,2.60
2022-09-12T17:36:48.418Z,2.63
2022-09-12T17:39:17.107Z,2.23
2022-09-12T17:41:46.116Z,2.90
2022-09-12T17:44:16.037Z,3.03
2022-09-12T17:46:44.931Z,2.60
2022-09-12T17:49:16.688Z,2.40
2022-09-12T17:51:45.889Z,2.40
2022-09-12T17:54:16.980Z,2.80
2022-09-12T17:56:49.001Z,2.83
2022-09-12T17:59:20.013Z,3.07
2022-09-12T18:02:06.368Z,2.70
2022-09-12T18:04:36.486Z,2.80
2022-09-12T18:07:05.121Z,2.67
2022-09-12T18:09:33.466Z,3.10
2022-09-12T18:12:01.808Z,3.20
2022-09-12T18:14:30.402Z,3.20
2022-09-12T18:17:00.232Z,3.17
2022-09-12T18:19:29.359Z,3.60
2022-09-12T18:21:59.651Z,3.73
2022-09-12T18:24:28.161Z,2.90
2022-09-12T18:26:57.665Z,3.30
2022-09-12T18:29:27.915Z,3.53
2022-09-12T18:31:56.259Z,3.67
2022-09-12T18:34:24.570Z,3.70
2022-09-12T18:36:54.857Z,3.80
2022-09-12T18:39:27.664Z,4.17
2022-09-12T18:41:56.935Z,3.70
2022-09-12T18:44:25.280Z,4.00
2022-09-12T18:46:53.957Z,4.00
2022-09-12T18:49:22.357Z,3.60
2022-09-12T18:51:50.695Z,3.77
2022-09-12T18:54:19.415Z,3.67
2022-09-12T18:56:49.282Z,3.93
2022-09-12T18:59:17.809Z,3.40
2022-09-12T19:01:46.334Z,3.60
2022-09-12T19:04:16.540Z,3.60
2022-09-12T19:06:46.934Z,3.50
2022-09-12T19:09:18.075Z,3.10
2022-09-12T19:11:50.159Z,3.40
2022-09-12T19:14:22.654Z,3.40
2022-09-12T19:16:52.158Z,3.97
2022-09-12T19:19:21.271Z,3.77
2022-09-12T19:21:49.678Z,3.43
2022-09-12T19:24:18.411Z,4.70
2022-09-12T19:26:49.200Z,3.70
2022-09-12T19:29:17.880Z,3.60
2022-09-12T19:31:47.058Z,4.13
2022-09-12T19:34:15.823Z,3.77
2022-09-12T19:36:46.336Z,4.00
2022-09-12T19:39:16.442Z,4.70
2022-09-12T19:41:45.468Z,4.07
2022-09-12T19:44:15.730Z,3.60
2022-09-12T19:46:44.191Z,4.00
2022-09-12T19:49:13.760Z,3.97
2022-09-12T19:51:42.527Z,3.67
2022-09-12T19:54:11.114Z,3.63
2022-09-12T19:56:39.454Z,3.40
2022-09-12T19:59:08.772Z,3.70
2022-09-12T20:01:38.655Z,3.23
2022-09-12T20:04:07.720Z,3.60
2022-09-12T20:06:36.870Z,3.77
2022-09-12T20:09:05.474Z,3.27
2022-09-12T20:11:34.005Z,3.50
2022-09-12T20:14:02.512Z,3.50
2022-09-12T20:16:31.702Z,4.40
2022-09-12T20:19:06.013Z,3.80
2022-09-12T20:21:36.116Z,3.43
2022-09-12T20:24:07.045Z,3.07
2022-09-12T20:26:35.954Z,3.93
2022-09-12T20:29:05.398Z,3.73
2022-09-12T20:31:34.630Z,3.37
2022-09-12T20:34:04.548Z,3.43
2022-09-12T20:36:33.103Z,3.27
2022-09-12T20:39:03.037Z,3.33
2022-09-12T20:41:35.305Z,3.17
2022-09-12T20:44:04.085Z,3.40
2022-09-12T20:46:33.138Z,3.30
2022-09-12T20:49:02.794Z,3.40
2022-09-12T20:51:31.364Z,3.17
2022-09-12T20:54:01.683Z,3.20
2022-09-12T20:56:31.740Z,3.30
2022-09-12T20:59:01.045Z,3.50
2022-09-12T21:01:31.307Z,3.37
2022-09-12T21:04:01.476Z,3.73
2022-09-12T21:06:32.434Z,3.00
2022-09-12T21:09:00.905Z,3.63
2022-09-12T21:11:29.917Z,3.67
2022-09-12T21:13:58.496Z,2.87
2022-09-12T21:16:26.925Z,3.43
2022-09-12T21:18:57.182Z,2.97
2022-09-12T21:21:25.953Z,2.93
2022-09-12T21:23:59.700Z,3.20
2022-09-12T21:26:28.370Z,3.37
2022-09-12T21:28:56.809Z,3.10
2022-09-12T21:31:26.474Z,3.50
2022-09-12T21:33:54.800Z,3.40
2022-09-12T21:36:23.153Z,3.30
2022-09-12T21:38:51.424Z,3.37
2022-09-12T21:41:21.062Z,2.77
2022-09-12T21:43:49.880Z,3.13
2022-09-12T21:46:18.625Z,3.90
2022-09-12T21:48:47.162Z,3.80
2022-09-12T21:51:15.434Z,3.50
2022-09-12T21:53:43.714Z,3.70
2022-09-12T21:56:12.051Z,3.70
2022-09-12T21:58:41.723Z,3.73
2022-09-12T22:01:12.966Z,3.70
2022-09-12T22:03:43.071Z,3.30
2022-09-12T22:06:14.802Z,3.37
2022-09-12T22:08:43.366Z,3.60
2022-09-12T22:11:11.678Z,3.70
2022-09-12T22:13:43.822Z,3.47
2022-09-12T22:16:12.780Z,3.50
2022-09-12T22:18:41.331Z,3.60
2022-09-12T22:21:13.387Z,3.50
2022-09-12T22:23:59.437Z,4.23
2022-09-12T22:26:28.188Z,3.00
2022-09-12T22:28:57.888Z,3.73
2022-09-12T22:31:27.016Z,3.73
2022-09-12T22:33:57.111Z,3.43
2022-09-12T22:36:30.461Z,3.40
2022-09-12T22:38:59.724Z,3.50
2022-09-12T22:41:28.498Z,3.80
2022-09-12T22:43:58.507Z,3.67
2022-09-12T22:46:27.277Z,3.63
2022-09-12T22:48:56.051Z,3.67
2022-09-12T22:51:24.403Z,4.00
2022-09-12T22:53:52.796Z,3.57
2022-09-12T22:56:21.241Z,3.93
2022-09-12T22:58:49.590Z,3.63
2022-09-12T23:01:19.439Z,3.53
2022-09-12T23:03:47.929Z,3.60
2022-09-12T23:06:16.457Z,3.90
2022-09-12T23:08:45.030Z,3.60
2022-09-12T23:11:15.730Z,3.53
2022-09-12T23:13:46.188Z,3.40
2022-09-12T23:16:20.132Z,4.00
2022-09-12T23:18:49.439Z,3.57
2022-09-12T23:21:20.513Z,3.80
2022-09-12T23:23:49.029Z,4.30
2022-09-12T23:26:20.037Z,4.27
2022-09-12T23:28:53.917Z,3.80
2022-09-12T23:31:25.766Z,3.97
2022-09-12T23:33:54.797Z,4.30
2022-09-12T23:36:23.913Z,4.13
2022-09-12T23:38:52.552Z,4.53
2022-09-12T23:41:20.897Z,4.17
2022-09-12T23:43:49.359Z,3.93
2022-09-12T23:46:19.173Z,3.97
2022-09-12T23:48:49.462Z,4.17
2022-09-12T23:51:18.097Z,4.67
2022-09-12T23:53:46.478Z,4.23
2022-09-12T23:56:14.826Z,3.90
2022-09-12T23:58:43.057Z,4.53
